Bemidji Regional Airport
KBJI : rendu visible

Aérodrome :











RETROUVEZ-NOUS SUR...

 
LOGIN :

S'inscrire | Disclaimer

   EN    FR    IT 

 









Légende :    VFR   VFR Marginal   IFR   IFR Intensif   IFR Très Intensif
Visi : 
Plafond : 
>= 8 km
>= 3000ft
5 à 8 km
1000 à 3000 ft
1500m à 5 km
500 à 1000 ft
800 à 1500m
200 à 500 ft
< 800m
< 200 ft
Symboles :   Orages  Brouillard  Fortes neiges  Fortes précipitations  Vent > 20 kt






- Altitude de l'aérodrome : 1391 ft


KBJI - Bemidji Regional

DERNIER METAR :
  • 121915Z AUTO 16017G21KT 7SM CLR M09/M19 A3012 RMK AO2 T10921188

METARs EXPIRÉS :
  • 121855Z AUTO 16017G21KT 7SM CLR M09/M19 A3014 RMK AO2 T10921186
  • 121836Z AUTO 17014G20KT 10SM CLR M09/M18 A3015 RMK AO2 T10901185
  • 121816Z AUTO 16012KT 7SM CLR M10/M19 A3016 RMK AO2 T10971190
  • 121759Z AUTO 16015G21KT 7SM CLR M10/M19 A3017 RMK AO2 T10991189
  • 121736Z AUTO 19012KT 7SM CLR M10/M19 A3019 RMK AO2 T11001187
  • 121735Z AUTO 18012KT 7SM CLR M10/M19 A3019 RMK AO2 T11011187
  • 121716Z AUTO 17011G19KT 7SM CLR M10/M19 A3022 RMK AO2 T11041189
  • 121715Z AUTO 18013G19KT 7SM CLR M10/M19 A3022 RMK AO2 T11051190
  • 121655Z AUTO 17010G18KT 7SM CLR M11/M19 A3024 RMK AO2 T11101194
  • 121638Z AUTO 19014G19KT 7SM CLR M11/M19 A3024 RMK AO2 T11151193
  • 121619Z AUTO 19011KT 7SM CLR M12/M19 A3025 RMK AO2 T11201186

TAF KBJI
Valide du 12 à 18h jusqu'au 13 à 18h UTC


121733Z 1218/1318 17012G21KT P6SM SCT200
FM130100 17012KT P6SM BKN200
FM130600 18007KT P6SM OVC035
FM130900 VRB04KT P6SM OVC030



MET'MAP, la Météo Aéronautique d'un coup d'oeil ! - Copyright ORBIFLY Décembre 2007 - Disclaimer

ORBIFLY MET'MAP TEAM :

Programmation & Développement : Alexandra Zaïnal
Conception & Développement : Baudouin d'Aumeries
Co-Programmation & Développement : Marc-Olivier Méhu
Soutien technique & logistique : Manuel Goepfert

Contact : metmap@orbifly.com




SOURCES & CREDITS :

   NOAA       Earth
Advisory